createdAt,value
2019-02-19T00:02:05.415Z,48.50
2019-02-19T00:04:36.396Z,51.75
2019-02-19T00:07:07.363Z,46.20
2019-02-19T00:09:38.098Z,51.00
2019-02-19T00:12:08.817Z,42.60
2019-02-19T00:14:39.692Z,43.60
2019-02-19T00:17:10.606Z,45.00
2019-02-19T00:19:41.432Z,45.00
2019-02-19T00:22:12.286Z,43.00
2019-02-19T00:24:42.967Z,46.60
2019-02-19T00:27:14.059Z,43.00
2019-02-19T00:29:44.779Z,46.00
2019-02-19T00:32:15.694Z,44.60
2019-02-19T00:34:46.323Z,47.00
2019-02-19T00:37:17.072Z,44.80
2019-02-19T00:39:47.841Z,42.80
2019-02-19T00:42:18.740Z,44.50
2019-02-19T00:44:49.657Z,46.00
2019-02-19T00:47:20.473Z,49.50
2019-02-19T00:49:51.216Z,51.40
2019-02-19T00:52:22.126Z,46.00
2019-02-19T00:54:52.917Z,48.40
2019-02-19T00:57:23.875Z,51.00
2019-02-19T00:59:54.662Z,52.40
2019-02-19T01:02:25.430Z,47.80
2019-02-19T01:04:56.210Z,51.00
2019-02-19T01:07:26.947Z,52.00
2019-02-19T01:09:57.640Z,49.00
2019-02-19T01:12:28.344Z,50.50
2019-02-19T01:15:13.410Z,46.80
2019-02-19T01:17:44.139Z,50.60
2019-02-19T01:20:14.938Z,51.40
2019-02-19T01:22:45.853Z,49.00
2019-02-19T01:25:26.422Z,46.80
2019-02-19T01:27:56.593Z,54.00
2019-02-19T01:30:27.190Z,54.20
2019-02-19T01:32:57.971Z,52.20
2019-02-19T01:35:28.671Z,46.60
2019-02-19T01:37:59.454Z,51.75
2019-02-19T01:40:30.112Z,48.50
2019-02-19T01:43:00.827Z,48.50
2019-02-19T01:45:34.004Z,48.00
2019-02-19T01:48:03.183Z,52.00
2019-02-19T01:50:33.899Z,50.25
2019-02-19T01:53:04.679Z,50.60
2019-02-19T01:55:35.440Z,49.80
2019-02-19T01:58:06.219Z,53.75
2019-02-19T02:00:37.016Z,50.20
2019-02-19T02:03:07.827Z,50.25
2019-02-19T02:05:38.456Z,49.00
2019-02-19T02:08:09.216Z,51.20
2019-02-19T02:10:40.003Z,47.40
2019-02-19T02:13:10.674Z,50.00
2019-02-19T02:15:42.883Z,51.50
2019-02-19T02:18:13.888Z,51.00
2019-02-19T02:20:44.693Z,49.00
2019-02-19T02:23:15.368Z,52.00
2019-02-19T02:25:46.106Z,50.80
2019-02-19T02:28:16.845Z,49.25
2019-02-19T02:30:47.699Z,48.00
2019-02-19T02:33:18.488Z,48.50
2019-02-19T02:35:49.273Z,46.80
2019-02-19T02:38:19.958Z,51.25
2019-02-19T02:40:50.839Z,51.00
2019-02-19T02:43:21.521Z,50.00
2019-02-19T02:45:53.677Z,46.60
2019-02-19T02:48:24.619Z,51.75
2019-02-19T02:50:55.443Z,45.50
2019-02-19T02:53:26.208Z,47.00
2019-02-19T02:55:57.085Z,49.50
2019-02-19T02:58:27.772Z,45.00
2019-02-19T03:00:58.560Z,53.20
2019-02-19T03:03:29.253Z,47.25
2019-02-19T03:06:18.512Z,48.25
2019-02-19T03:08:49.136Z,45.80
2019-02-19T03:11:20.020Z,50.00
2019-02-19T03:13:50.828Z,51.25
2019-02-19T03:16:21.575Z,47.50
2019-02-19T03:18:52.286Z,47.50
2019-02-19T03:21:23.050Z,46.00
2019-02-19T03:23:53.762Z,48.20
2019-02-19T03:26:24.497Z,46.00
2019-02-19T03:28:55.278Z,47.60
2019-02-19T03:31:26.100Z,46.00
2019-02-19T03:33:56.664Z,46.50
2019-02-19T03:36:27.338Z,43.40
2019-02-19T03:38:58.033Z,43.00
2019-02-19T03:41:29.975Z,47.50
2019-02-19T03:44:00.659Z,45.75
2019-02-19T03:46:32.662Z,45.25
2019-02-19T03:49:03.425Z,44.50
2019-02-19T03:51:34.300Z,48.60
2019-02-19T03:54:04.904Z,44.00
2019-02-19T03:56:35.671Z,42.40
2019-02-19T03:59:06.463Z,45.00
2019-02-19T04:01:37.333Z,42.20
2019-02-19T04:04:08.019Z,44.50
2019-02-19T04:06:38.838Z,42.75
2019-02-19T04:09:09.468Z,45.40
2019-02-19T04:11:40.468Z,45.00
2019-02-19T04:14:12.184Z,46.25
2019-02-19T04:16:42.998Z,43.60
2019-02-19T04:19:13.777Z,46.00
2019-02-19T04:21:44.536Z,45.60
2019-02-19T04:24:15.335Z,42.80
2019-02-19T04:26:46.125Z,45.00
2019-02-19T04:29:17.935Z,40.80
2019-02-19T04:31:48.717Z,41.00
2019-02-19T04:34:19.375Z,45.00
2019-02-19T04:36:50.157Z,38.60
2019-02-19T04:39:20.874Z,45.00
2019-02-19T04:41:51.620Z,44.25
2019-02-19T04:44:22.413Z,49.00
2019-02-19T04:46:53.177Z,42.20
2019-02-19T04:49:23.881Z,41.00
2019-02-19T04:51:54.659Z,45.40
2019-02-19T04:54:25.445Z,45.00
2019-02-19T04:56:56.169Z,45.00
2019-02-19T04:59:26.816Z,44.60
2019-02-19T05:01:58.633Z,43.50
2019-02-19T05:04:29.405Z,42.00
2019-02-19T05:07:00.283Z,42.50
2019-02-19T05:09:31.072Z,41.00
2019-02-19T05:12:01.837Z,45.80
2019-02-19T05:14:32.527Z,46.40
2019-02-19T05:17:03.295Z,43.80
2019-02-19T05:19:33.992Z,45.20
2019-02-19T05:22:04.771Z,44.20
2019-02-19T05:24:35.458Z,45.40
2019-02-19T05:27:06.243Z,42.40
2019-02-19T05:29:36.938Z,42.00
2019-02-19T05:32:07.718Z,41.60
2019-02-19T05:34:38.426Z,45.75
2019-02-19T05:37:09.269Z,45.40
2019-02-19T05:39:39.874Z,46.20
2019-02-19T05:42:10.753Z,41.80
2019-02-19T05:44:41.474Z,39.20
2019-02-19T05:47:12.254Z,38.50
2019-02-19T05:49:42.899Z,42.75
2019-02-19T05:52:13.670Z,41.20
2019-02-19T05:54:44.659Z,42.40
2019-02-19T05:57:15.453Z,45.25
2019-02-19T05:59:46.172Z,41.25
2019-02-19T06:02:16.955Z,38.00
2019-02-19T06:04:47.709Z,46.20
2019-02-19T06:07:18.513Z,43.50
2019-02-19T06:09:49.282Z,43.50
2019-02-19T06:12:20.063Z,44.00
2019-02-19T06:14:50.748Z,44.00
2019-02-19T06:17:21.530Z,41.40
2019-02-19T06:19:52.198Z,46.80
2019-02-19T06:22:22.896Z,44.60
2019-02-19T06:24:53.684Z,44.00
2019-02-19T06:27:24.482Z,39.80
2019-02-19T06:29:55.144Z,41.80
2019-02-19T06:32:25.960Z,45.00
2019-02-19T06:34:56.524Z,43.00
2019-02-19T06:37:27.383Z,41.00
2019-02-19T06:39:57.978Z,41.50
2019-02-19T06:42:28.758Z,44.00
2019-02-19T06:44:59.684Z,42.00
2019-02-19T06:47:30.436Z,45.00
2019-02-19T06:50:01.194Z,45.00
2019-02-19T06:52:31.983Z,43.60
2019-02-19T06:55:02.681Z,42.50
2019-02-19T06:57:33.555Z,41.00
2019-02-19T07:00:04.455Z,46.00
2019-02-19T07:02:44.407Z,45.40
2019-02-19T07:05:20.350Z,39.40
2019-02-19T07:07:51.111Z,41.80
2019-02-19T07:10:21.908Z,46.25
2019-02-19T07:12:52.706Z,44.00
2019-02-19T07:15:23.418Z,44.40
2019-02-19T07:17:54.176Z,42.60
2019-02-19T07:20:24.797Z,42.60
2019-02-19T07:22:55.571Z,44.25
2019-02-19T07:25:26.433Z,48.00
2019-02-19T07:27:57.243Z,42.60
2019-02-19T07:30:27.979Z,46.60
2019-02-19T07:32:58.753Z,43.00
2019-02-19T07:35:29.369Z,42.80
2019-02-19T07:38:00.161Z,41.25
2019-02-19T07:40:30.726Z,42.00
2019-02-19T07:43:01.532Z,44.00
2019-02-19T07:45:32.387Z,43.60
2019-02-19T07:48:03.279Z,46.40
2019-02-19T07:50:33.961Z,44.50
2019-02-19T07:53:04.744Z,45.00
2019-02-19T07:55:35.434Z,42.60
2019-02-19T07:58:06.134Z,43.00
2019-02-19T08:00:36.683Z,43.00
2019-02-19T08:03:07.450Z,46.00
2019-02-19T08:05:38.160Z,43.00
2019-02-19T08:08:09.055Z,44.00
2019-02-19T08:10:39.732Z,46.20
2019-02-19T08:13:10.742Z,50.00
2019-02-19T08:15:41.495Z,42.00
2019-02-19T08:18:12.208Z,47.80
2019-02-19T08:20:42.955Z,44.40
2019-02-19T08:23:13.742Z,49.20
2019-02-19T08:25:44.526Z,43.00
2019-02-19T08:28:15.453Z,47.25
2019-02-19T08:30:46.100Z,47.80
2019-02-19T08:33:16.892Z,48.20
2019-02-19T08:35:47.643Z,48.00
2019-02-19T08:38:18.472Z,51.00
2019-02-19T08:40:49.264Z,52.60
2019-02-19T08:43:20.135Z,48.00
2019-02-19T08:45:51.040Z,49.00
2019-02-19T08:48:22.814Z,49.00
2019-02-19T08:50:53.510Z,51.80
2019-02-19T08:53:24.395Z,49.25
2019-02-19T08:55:55.084Z,49.25
2019-02-19T08:58:26.074Z,48.00
2019-02-19T09:00:56.725Z,49.40
2019-02-19T09:03:27.716Z,45.75
2019-02-19T09:05:58.547Z,50.00
2019-02-19T09:08:29.425Z,48.00
2019-02-19T09:11:00.336Z,49.00
2019-02-19T09:13:31.163Z,47.60
2019-02-19T09:16:02.083Z,52.00
2019-02-19T09:18:32.978Z,49.00
2019-02-19T09:21:03.539Z,50.00
2019-02-19T09:23:34.334Z,52.40
2019-02-19T09:26:04.894Z,47.00
2019-02-19T09:28:35.514Z,51.00
2019-02-19T09:31:06.255Z,48.50
2019-02-19T09:33:37.151Z,51.25
2019-02-19T09:36:08.030Z,48.00
2019-02-19T09:38:38.838Z,49.25
2019-02-19T09:41:09.583Z,51.00
2019-02-19T09:43:40.507Z,47.00
2019-02-19T09:46:11.374Z,52.60
2019-02-19T09:48:42.358Z,52.00
2019-02-19T09:51:13.040Z,49.20
2019-02-19T09:53:44.141Z,54.25
2019-02-19T09:56:15.099Z,51.50
2019-02-19T09:58:46.388Z,51.00
2019-02-19T10:01:17.503Z,51.00
2019-02-19T10:03:48.714Z,48.00
2019-02-19T10:06:19.521Z,51.00
2019-02-19T10:08:50.285Z,47.00
2019-02-19T10:11:20.974Z,52.25
2019-02-19T10:13:51.730Z,46.40
2019-02-19T10:16:22.444Z,48.40
2019-02-19T10:18:53.326Z,47.00
2019-02-19T10:21:23.965Z,48.50
2019-02-19T10:23:54.788Z,49.60
2019-02-19T10:26:25.477Z,49.75
2019-02-19T10:28:56.150Z,44.00
2019-02-19T10:31:26.802Z,48.50
2019-02-19T10:33:57.367Z,47.60
2019-02-19T10:36:28.081Z,46.50
2019-02-19T10:38:58.903Z,48.50
2019-02-19T10:41:29.635Z,47.00
2019-02-19T10:44:00.462Z,48.00
2019-02-19T10:46:31.216Z,46.00
2019-02-19T10:49:02.109Z,48.80
2019-02-19T10:51:32.811Z,47.00
2019-02-19T10:54:03.586Z,46.60
2019-02-19T10:56:34.172Z,44.20
2019-02-19T10:59:04.986Z,50.00
2019-02-19T11:01:35.887Z,46.00
2019-02-19T11:04:06.795Z,47.00
2019-02-19T11:06:39.016Z,48.00
2019-02-19T11:09:10.035Z,46.00
2019-02-19T11:11:40.696Z,46.40
2019-02-19T11:14:11.491Z,47.50
2019-02-19T11:16:42.280Z,51.00
2019-02-19T11:19:13.170Z,46.50
2019-02-19T11:21:43.832Z,45.40
2019-02-19T11:24:14.737Z,48.40
2019-02-19T11:26:45.417Z,46.60
2019-02-19T11:29:16.133Z,48.80
2019-02-19T11:31:46.947Z,42.00
2019-02-19T11:34:17.867Z,42.00
2019-02-19T11:36:48.747Z,43.00
2019-02-19T11:39:19.528Z,42.00
2019-02-19T11:41:50.340Z,40.60
2019-02-19T11:44:21.308Z,43.50
2019-02-19T11:46:51.917Z,42.20
2019-02-19T11:49:22.693Z,41.75
2019-02-19T11:51:53.427Z,42.80
2019-02-19T11:54:24.131Z,42.60
2019-02-19T11:56:54.999Z,42.00
2019-02-19T11:59:25.851Z,42.25
2019-02-19T12:01:56.795Z,38.20
2019-02-19T12:04:27.491Z,39.00
2019-02-19T12:06:58.383Z,41.00
2019-02-19T12:09:29.215Z,40.40
2019-02-19T12:12:00.035Z,46.00
2019-02-19T12:14:30.947Z,41.20
2019-02-19T12:17:01.710Z,39.00
2019-02-19T12:19:32.617Z,37.80
2019-02-19T12:22:03.476Z,41.75
2019-02-19T12:24:34.357Z,35.75
2019-02-19T12:27:08.292Z,38.00
2019-02-19T12:29:37.654Z,36.60
2019-02-19T12:32:08.452Z,39.75
2019-02-19T12:34:39.244Z,39.00
2019-02-19T12:37:09.954Z,39.00
2019-02-19T12:39:40.840Z,40.00
2019-02-19T12:42:11.599Z,38.40
2019-02-19T12:44:42.504Z,39.80
2019-02-19T12:47:13.394Z,38.75
2019-02-19T12:49:44.089Z,37.00
2019-02-19T12:52:14.774Z,36.20
2019-02-19T12:54:45.546Z,37.80
2019-02-19T12:57:17.331Z,31.80
2019-02-19T12:59:56.260Z,31.60
2019-02-19T13:02:20.559Z,34.00
2019-02-19T13:04:51.323Z,35.00
2019-02-19T13:07:21.985Z,34.60
2019-02-19T13:09:52.817Z,32.00
2019-02-19T13:12:23.621Z,33.00
2019-02-19T13:14:54.488Z,38.00
2019-02-19T13:17:25.236Z,31.00
2019-02-19T13:19:56.025Z,35.00
2019-02-19T13:22:26.727Z,29.80
2019-02-19T13:24:57.495Z,32.60
2019-02-19T13:27:28.319Z,30.40
2019-02-19T13:32:48.856Z,32.50
2019-02-19T13:35:19.650Z,33.00
2019-02-19T13:37:50.382Z,31.25
2019-02-19T13:40:21.201Z,34.00
2019-02-19T13:42:51.996Z,35.60
2019-02-19T13:45:23.132Z,32.50
2019-02-19T13:47:54.119Z,33.00
2019-02-19T13:50:24.778Z,31.40
2019-02-19T13:53:15.247Z,33.00
2019-02-19T13:55:49.462Z,32.25
2019-02-19T13:58:20.936Z,28.00
2019-02-19T14:00:51.717Z,35.00
2019-02-19T14:03:23.106Z,29.60
2019-02-19T14:05:55.749Z,30.00
2019-02-19T14:08:26.445Z,28.00
2019-02-19T14:10:57.236Z,34.60
2019-02-19T14:13:27.967Z,32.00
2019-02-19T14:16:10.891Z,27.00
2019-02-19T14:18:48.078Z,31.20
2019-02-19T14:21:50.041Z,27.50
2019-02-19T14:24:31.219Z,32.00
2019-02-19T14:27:35.960Z,27.00
2019-02-19T14:30:25.628Z,27.00
2019-02-19T14:33:18.479Z,26.00
2019-02-19T14:36:11.538Z,25.50
2019-02-19T14:39:07.255Z,24.25
2019-02-19T14:42:00.207Z,29.50
2019-02-19T14:44:56.439Z,22.00
2019-02-19T14:48:01.374Z,23.00
2019-02-19T14:51:03.446Z,23.80
2019-02-19T14:53:51.583Z,24.60
2019-02-19T14:56:47.302Z,24.60
2019-02-19T14:59:36.979Z,18.50
2019-02-19T15:02:32.803Z,21.20
2019-02-19T15:05:28.835Z,21.00
2019-02-19T15:08:21.677Z,21.40
2019-02-19T15:11:10.035Z,22.00
2019-02-19T15:14:05.666Z,18.00
2019-02-19T15:16:53.270Z,27.00
2019-02-19T15:19:39.223Z,21.00
2019-02-19T15:22:27.403Z,22.00
2019-02-19T15:25:20.050Z,21.00
2019-02-19T15:28:09.854Z,22.75
2019-02-19T15:31:15.173Z,19.75
2019-02-19T15:34:04.953Z,20.00
2019-02-19T15:36:54.736Z,22.40
2019-02-19T15:39:50.760Z,21.40
2019-02-19T15:42:31.839Z,18.00
2019-02-19T15:45:20.924Z,19.00
2019-02-19T15:48:10.677Z,15.60
2019-02-19T15:51:09.057Z,19.25
2019-02-19T15:53:55.970Z,15.40
2019-02-19T15:56:44.727Z,20.20
2019-02-19T15:59:49.558Z,20.40
2019-02-19T16:02:33.502Z,21.40
2019-02-19T16:05:24.818Z,19.25
2019-02-19T16:08:17.462Z,14.60
2019-02-19T16:11:12.877Z,18.00
2019-02-19T16:13:59.584Z,18.00
2019-02-19T16:16:49.259Z,15.00
2019-02-19T16:19:25.626Z,14.40
2019-02-19T16:22:11.720Z,15.00
2019-02-19T16:25:07.756Z,18.00
2019-02-19T16:27:55.390Z,21.00
2019-02-19T16:30:44.038Z,22.75
2019-02-19T16:33:24.902Z,20.25
2019-02-19T16:36:04.847Z,15.00
2019-02-19T16:38:50.944Z,21.40
2019-02-19T16:41:30.276Z,15.80
2019-02-19T16:44:29.068Z,17.00
2019-02-19T16:47:31.136Z,17.40
2019-02-19T16:50:14.156Z,18.00
2019-02-19T16:52:55.128Z,18.50
2019-02-19T16:55:57.403Z,17.00
2019-02-19T16:58:50.149Z,14.60
2019-02-19T17:01:37.708Z,19.00
2019-02-19T17:04:24.101Z,19.00
2019-02-19T17:07:12.628Z,21.80
2019-02-19T17:10:11.317Z,18.00
2019-02-19T17:13:03.362Z,17.00
2019-02-19T17:16:02.345Z,20.00
2019-02-19T17:18:47.210Z,14.40
2019-02-19T17:21:39.860Z,19.00
2019-02-19T17:24:26.793Z,16.20
2019-02-19T17:27:06.929Z,19.40
2019-02-19T17:29:59.487Z,16.20
2019-02-19T17:32:57.809Z,15.00
2019-02-19T17:35:47.321Z,12.00
2019-02-19T17:38:26.656Z,12.60
2019-02-19T17:41:25.753Z,20.25
2019-02-19T17:44:11.335Z,15.00
2019-02-19T17:47:14.454Z,17.00
2019-02-19T17:49:54.379Z,13.40
2019-02-19T17:52:47.330Z,13.80
2019-02-19T17:55:43.153Z,13.60
2019-02-19T17:58:27.200Z,14.00
2019-02-19T18:01:29.367Z,18.00
2019-02-19T18:04:31.434Z,14.00
2019-02-19T18:07:33.605Z,15.40
2019-02-19T18:10:25.228Z,11.80
2019-02-19T18:13:30.366Z,12.40
2019-02-19T18:16:10.418Z,13.50
2019-02-19T18:18:49.243Z,12.00
2019-02-19T18:21:20.381Z,18.20
2019-02-19T18:23:51.045Z,12.00
2019-02-19T18:26:21.920Z,14.00
2019-02-19T18:28:52.710Z,12.00
2019-02-19T18:31:23.582Z,14.00
2019-02-19T18:33:54.276Z,13.40
2019-02-19T18:36:25.217Z,9.40
2019-02-19T18:38:56.104Z,9.20
2019-02-19T18:41:26.992Z,7.20
2019-02-19T18:43:57.893Z,8.80
2019-02-19T18:46:28.916Z,9.00
2019-02-19T18:48:59.796Z,8.40
2019-02-19T18:51:30.765Z,9.00
2019-02-19T18:54:01.683Z,9.00
2019-02-19T18:56:33.528Z,7.00
2019-02-19T18:59:04.280Z,10.00
2019-02-19T19:01:35.198Z,7.00
2019-02-19T19:04:06.003Z,7.00
2019-02-19T19:06:36.960Z,8.00
2019-02-19T19:09:08.494Z,9.00
2019-02-19T19:11:39.376Z,9.40
2019-02-19T19:14:10.304Z,8.00
2019-02-19T19:16:41.354Z,9.00
2019-02-19T19:19:12.422Z,5.80
2019-02-19T19:21:43.432Z,7.00
2019-02-19T19:24:15.630Z,8.75
2019-02-19T19:26:46.545Z,8.40
2019-02-19T19:29:17.402Z,10.00
2019-02-19T19:31:48.320Z,8.40
2019-02-19T19:34:19.223Z,9.00
2019-02-19T19:36:51.129Z,8.60
2019-02-19T19:39:23.937Z,9.40
2019-02-19T19:41:54.890Z,7.00
2019-02-19T19:44:25.902Z,8.00
2019-02-19T19:46:56.888Z,9.60
2019-02-19T19:49:27.728Z,7.00
2019-02-19T19:51:58.436Z,13.00
2019-02-19T19:54:29.055Z,10.00
2019-02-19T19:57:00.078Z,9.40
2019-02-19T19:59:32.065Z,7.50
2019-02-19T20:02:02.832Z,13.80
2019-02-19T20:04:33.736Z,9.00
2019-02-19T20:07:04.605Z,11.00
2019-02-19T20:09:35.485Z,8.40
2019-02-19T20:12:06.404Z,9.75
2019-02-19T20:14:37.128Z,11.00
2019-02-19T20:17:07.914Z,12.00
2019-02-19T20:19:38.710Z,10.00
2019-02-19T20:22:09.539Z,16.00
2019-02-19T20:24:40.189Z,22.00
2019-02-19T20:27:12.200Z,14.00
2019-02-19T20:29:42.973Z,14.00
2019-02-19T20:32:13.647Z,14.00
2019-02-19T20:34:44.320Z,19.00
2019-02-19T20:37:15.216Z,16.50
2019-02-19T20:39:46.091Z,15.25
2019-02-19T20:42:17.951Z,13.00
2019-02-19T20:44:48.689Z,16.00
2019-02-19T20:47:19.515Z,21.00
2019-02-19T20:49:50.488Z,15.60
2019-02-19T20:52:21.252Z,13.60
2019-02-19T20:54:52.954Z,17.00
2019-02-19T20:57:23.987Z,13.00
2019-02-19T20:59:54.755Z,15.00
2019-02-19T21:02:25.634Z,15.40
2019-02-19T21:04:56.307Z,17.20
2019-02-19T21:07:27.474Z,17.00
2019-02-19T21:09:58.371Z,15.50
2019-02-19T21:12:29.171Z,20.60
2019-02-19T21:14:59.945Z,15.00
2019-02-19T21:17:30.950Z,17.00
2019-02-19T21:20:01.821Z,19.40
2019-02-19T21:22:33.658Z,23.00
2019-02-19T21:25:04.452Z,16.00
2019-02-19T21:27:35.640Z,18.60
2019-02-19T21:30:06.593Z,17.00
2019-02-19T21:32:38.924Z,17.80
2019-02-19T21:35:09.806Z,21.75
2019-02-19T21:37:40.536Z,21.00
2019-02-19T21:40:11.250Z,23.20
2019-02-19T21:42:42.306Z,26.00
2019-02-19T21:45:13.203Z,21.00
2019-02-19T21:47:44.090Z,23.60
2019-02-19T21:50:15.835Z,21.00
2019-02-19T21:52:47.132Z,24.50
2019-02-19T21:55:17.996Z,16.75
2019-02-19T21:57:48.768Z,25.75
2019-02-19T22:00:20.613Z,21.00
2019-02-19T22:02:53.004Z,22.00
2019-02-19T22:05:23.745Z,24.40
2019-02-19T22:07:54.536Z,24.25
2019-02-19T22:10:25.239Z,22.00
2019-02-19T22:12:55.913Z,22.25
2019-02-19T22:15:26.736Z,22.00
2019-02-19T22:17:57.488Z,18.20
2019-02-19T22:20:40.759Z,22.00
2019-02-19T22:23:11.549Z,22.00
2019-02-19T22:25:42.256Z,23.75
2019-02-19T22:28:13.018Z,24.50
2019-02-19T22:30:43.898Z,19.75
2019-02-19T22:33:14.478Z,20.60
2019-02-19T22:35:45.290Z,21.40
2019-02-19T22:38:16.047Z,19.60
2019-02-19T22:40:54.829Z,24.00
2019-02-19T22:43:19.203Z,18.00
2019-02-19T22:45:50.073Z,19.00
2019-02-19T22:48:20.856Z,16.80
2019-02-19T22:50:51.707Z,21.80
2019-02-19T22:53:53.502Z,19.50
2019-02-19T22:56:30.071Z,16.40
2019-02-19T22:59:01.066Z,14.00
2019-02-19T23:01:34.715Z,14.25
2019-02-19T23:04:05.494Z,19.00
2019-02-19T23:06:37.224Z,19.40
2019-02-19T23:09:08.298Z,14.50
2019-02-19T23:11:39.407Z,18.75
2019-02-19T23:14:11.296Z,16.00
2019-02-19T23:16:42.103Z,13.50
2019-02-19T23:19:12.924Z,12.40
2019-02-19T23:21:43.794Z,13.40
2019-02-19T23:24:14.679Z,14.00
2019-02-19T23:26:45.547Z,12.75
2019-02-19T23:29:16.391Z,9.40
2019-02-19T23:31:47.397Z,8.40
2019-02-19T23:34:18.387Z,6.20
2019-02-19T23:37:02.275Z,9.00
2019-02-19T23:39:33.156Z,9.20
2019-02-19T23:42:04.048Z,8.20
2019-02-19T23:44:35.150Z,8.20
2019-02-19T23:47:06.228Z,9.80
2019-02-19T23:49:37.041Z,13.50
2019-02-19T23:52:07.727Z,11.50
2019-02-19T23:54:38.507Z,10.00
2019-02-19T23:57:09.223Z,12.00
2019-02-19T23:59:39.964Z,14.00
